Time;durP1;ratioP1;P1;durP2;ratioP2;P2;SDS_P1;SDS_P2;PMS_P1;PMS_P2;Temp;Humidity;BMP_temperature;BMP_pressure;BME280_temperature;BME280_humidity;BME280_pressure;Samples;Min_cycle;Max_cycle;Signal;HPM_P1;HPM_P2
2023/04/08 00:03:39;;;;;;;2.03;1.80;;;;;;;10.00;74.59;100536.66;10436454;28;20098;-69
2023/04/08 00:08:41;;;;;;;2.00;1.80;;;;;;;10.01;74.17;100543.63;10431739;28;20048;-68
2023/04/08 00:13:43;;;;;;;2.10;1.90;;;;;;;9.96;74.33;100538.66;10440898;28;20045;-66
2023/04/08 00:18:44;;;;;;;2.45;2.03;;;;;;;9.91;74.47;100539.00;10440962;28;20521;-67
2023/04/08 00:23:46;;;;;;;1.83;1.73;;;;;;;9.84;74.60;100537.75;10430639;28;20057;-66
2023/04/08 00:28:47;;;;;;;2.38;1.98;;;;;;;9.71;74.85;100537.81;10434352;28;20068;-67
2023/04/08 00:33:50;;;;;;;4.05;2.75;;;;;;;9.68;75.18;100547.78;10433344;28;20132;-68
2023/04/08 00:38:51;;;;;;;2.28;1.98;;;;;;;9.59;75.26;100548.47;10432763;28;20391;-68
2023/04/08 00:43:53;;;;;;;3.35;3.05;;;;;;;9.55;75.53;100548.69;10432559;28;20365;-66
2023/04/08 00:48:54;;;;;;;3.45;3.00;;;;;;;9.47;75.66;100553.72;10440328;28;20356;-66
2023/04/08 00:53:56;;;;;;;2.90;2.58;;;;;;;9.34;75.75;100543.09;10442508;28;20169;-69
2023/04/08 00:58:59;;;;;;;2.90;2.63;;;;;;;9.34;76.05;100551.06;10436985;28;20055;-66
2023/04/08 01:04:08;;;;;;;3.10;2.80;;;;;;;9.25;75.92;100541.09;10437823;28;20036;-66
2023/04/08 01:09:12;;;;;;;2.58;2.38;;;;;;;9.25;75.90;100556.16;10443453;28;20037;-67
2023/04/08 01:14:19;;;;;;;3.08;2.78;;;;;;;9.16;76.09;100553.19;10432928;28;20115;-67
2023/04/08 01:19:28;;;;;;;2.88;2.67;;;;;;;9.14;76.33;100548.94;10437336;28;20060;-69
2023/04/08 01:24:35;;;;;;;3.60;2.40;;;;;;;9.07;76.32;100556.50;10441900;28;20048;-67
2023/04/08 01:29:38;;;;;;;3.33;3.03;;;;;;;9.04;76.53;100559.38;10443031;28;20041;-68
2023/04/08 01:34:41;;;;;;;3.28;2.97;;;;;;;8.98;76.36;100557.97;10439584;28;20499;-68
2023/04/08 01:39:44;;;;;;;4.70;3.10;;;;;;;8.96;76.52;100557.25;10436488;28;20156;-68
2023/04/08 01:44:47;;;;;;;3.38;3.08;;;;;;;8.90;76.70;100559.47;10468666;28;20037;-72
2023/04/08 01:49:50;;;;;;;3.85;3.05;;;;;;;8.81;76.54;100559.16;10446794;28;20565;-68
2023/04/08 01:54:52;;;;;;;4.20;3.80;;;;;;;8.72;77.30;100543.84;10432586;28;20045;-70
2023/04/08 01:59:59;;;;;;;4.28;3.75;;;;;;;8.70;77.31;100548.41;10435064;28;20463;-70
2023/04/08 02:05:01;;;;;;;3.90;3.50;;;;;;;8.64;77.04;100551.47;10428113;28;20057;-67
2023/04/08 02:10:03;;;;;;;4.72;4.32;;;;;;;8.62;77.30;100564.00;10429006;28;20052;-67
2023/04/08 02:15:05;;;;;;;4.28;3.50;;;;;;;8.55;77.19;100571.50;10429464;28;20238;-67
2023/04/08 02:20:15;;;;;;;4.45;4.05;;;;;;;8.49;77.77;100566.63;10431327;28;20071;-65
2023/04/08 02:25:22;;;;;;;4.25;3.92;;;;;;;8.53;77.22;100575.22;10433196;28;20142;-67
2023/04/08 02:30:26;;;;;;;5.07;4.57;;;;;;;8.40;77.67;100573.34;10429960;28;20473;-68
2023/04/08 02:35:27;;;;;;;4.50;4.00;;;;;;;8.28;77.69;100563.56;10440886;28;20508;-66
2023/04/08 02:40:32;;;;;;;5.00;4.60;;;;;;;8.29;78.14;100578.53;10442015;28;20350;-66
2023/04/08 02:45:41;;;;;;;5.22;4.75;;;;;;;8.24;78.16;100580.63;10433195;28;20097;-68
2023/04/08 02:50:43;;;;;;;5.90;5.28;;;;;;;8.14;78.01;100578.56;10435929;28;20104;-68
2023/04/08 02:55:44;;;;;;;6.28;5.68;;;;;;;8.09;78.14;100578.03;10431738;28;20141;-65
2023/04/08 03:00:45;;;;;;;5.68;5.18;;;;;;;8.05;78.02;100586.28;10435209;28;20051;-69
2023/04/08 03:05:47;;;;;;;6.30;5.70;;;;;;;8.00;78.65;100583.94;10439989;28;20484;-70
2023/04/08 03:10:49;;;;;;;6.10;5.10;;;;;;;7.97;78.20;100594.69;10437110;28;20052;-69
2023/04/08 03:15:50;;;;;;;6.60;6.00;;;;;;;7.89;78.02;100591.72;10432441;28;20048;-67
2023/04/08 03:20:52;;;;;;;6.47;5.97;;;;;;;7.84;78.31;100594.66;10440003;28;20129;-68
2023/04/08 03:25:53;;;;;;;6.10;5.60;;;;;;;7.72;78.28;100585.69;10434913;28;20059;-70
2023/04/08 03:30:56;;;;;;;7.05;6.50;;;;;;;7.69;78.64;100593.81;10438124;28;20040;-70
2023/04/08 03:35:57;;;;;;;5.95;5.45;;;;;;;7.64;78.92;100595.06;10435392;28;20044;-70
2023/04/08 03:40:58;;;;;;;7.45;6.00;;;;;;;7.59;78.09;100590.88;10435469;28;20595;-68
2023/04/08 03:46:00;;;;;;;7.78;7.07;;;;;;;7.53;77.42;100595.72;10435034;28;20071;-68
2023/04/08 03:51:01;;;;;;;7.43;6.78;;;;;;;7.59;77.09;100595.34;10434582;28;20132;-67
2023/04/08 03:56:03;;;;;;;8.20;7.40;;;;;;;7.56;76.48;100588.44;10427136;28;20427;-68
2023/04/08 04:01:04;;;;;;;8.73;7.93;;;;;;;7.58;76.20;100601.59;10430810;28;20127;-68
2023/04/08 04:06:06;;;;;;;8.95;7.35;;;;;;;7.58;75.06;100602.44;10436250;28;20320;-69
2023/04/08 04:11:07;;;;;;;7.00;6.38;;;;;;;7.59;74.59;100608.59;10438288;28;20070;-66
2023/04/08 04:16:09;;;;;;;7.78;6.97;;;;;;;7.57;73.91;100607.84;10434592;28;20521;-68
2023/04/08 04:21:10;;;;;;;7.75;7.05;;;;;;;7.53;73.09;100606.31;10439347;28;20156;-68
2023/04/08 04:26:12;;;;;;;8.65;7.10;;;;;;;7.50;73.28;100615.31;10433904;28;20424;-69
2023/04/08 04:31:21;;;;;;;8.43;7.55;;;;;;;7.46;73.61;100613.81;10434738;28;20492;-68
2023/04/08 04:36:23;;;;;;;7.60;6.90;;;;;;;7.44;73.40;100616.53;10434475;28;20044;-68
2023/04/08 04:41:26;;;;;;;7.85;7.07;;;;;;;7.38;73.18;100606.31;10439032;28;20129;-70
2023/04/08 04:46:27;;;;;;;8.65;7.78;;;;;;;7.35;73.17;100619.75;10432203;28;20130;-69
2023/04/08 04:51:30;;;;;;;7.82;7.13;;;;;;;7.31;73.95;100609.44;10431103;28;20480;-70
2023/04/08 04:56:31;;;;;;;7.88;7.18;;;;;;;7.26;73.81;100609.72;10437050;28;20048;-68
2023/04/08 05:01:33;;;;;;;8.27;7.55;;;;;;;7.21;74.31;100625.06;10434250;28;20143;-68
2023/04/08 05:06:35;;;;;;;8.15;7.43;;;;;;;7.19;74.04;100635.75;10432852;28;20049;-70
2023/04/08 05:11:36;;;;;;;7.55;6.85;;;;;;;7.19;74.40;100642.81;10435013;28;20076;-68
2023/04/08 05:16:38;;;;;;;8.95;8.05;;;;;;;7.18;74.09;100641.13;10436060;28;20109;-69
2023/04/08 05:21:40;;;;;;;9.30;7.65;;;;;;;7.18;73.65;100659.66;10446070;28;20331;-74
2023/04/08 05:26:41;;;;;;;8.55;7.30;;;;;;;7.15;73.99;100659.84;10484477;28;20261;-72
2023/04/08 05:31:43;;;;;;;8.70;7.90;;;;;;;7.17;73.74;100657.94;10454583;28;20075;-68
2023/04/08 05:36:45;;;;;;;9.10;8.10;;;;;;;7.08;73.49;100649.59;10430264;28;20055;-68
2023/04/08 05:41:46;;;;;;;8.27;7.47;;;;;;;7.19;74.12;100671.94;10428496;28;20559;-68
2023/04/08 05:46:48;;;;;;;8.98;8.00;;;;;;;7.12;73.84;100649.44;10434542;28;26250;-68
2023/04/08 05:51:49;;;;;;;7.88;7.15;;;;;;;7.31;73.84;100662.41;10433531;28;20126;-70
2023/04/08 05:56:50;;;;;;;8.13;7.43;;;;;;;7.39;73.34;100673.41;10436276;28;20136;-71
2023/04/08 06:01:54;;;;;;;8.48;7.63;;;;;;;7.49;73.25;100679.84;10436672;28;20080;-71
2023/04/08 06:06:58;;;;;;;11.43;9.02;;;;;;;7.55;72.68;100683.91;10434234;28;20052;-68
2023/04/08 06:12:00;;;;;;;9.40;8.50;;;;;;;7.62;72.36;100698.47;10436822;28;20044;-70
2023/04/08 06:17:01;;;;;;;9.85;8.85;;;;;;;7.66;71.94;100694.72;10436120;28;20045;-65
2023/04/08 06:22:03;;;;;;;10.15;9.18;;;;;;;7.81;71.21;100700.88;10435448;28;21087;-68
2023/04/08 06:27:05;;;;;;;9.57;8.60;;;;;;;7.86;70.66;100697.94;10443080;28;20056;-67
2023/04/08 06:32:06;;;;;;;9.93;8.93;;;;;;;7.96;70.54;100709.66;10444680;28;20162;-66
2023/04/08 06:37:08;;;;;;;10.13;9.23;;;;;;;8.07;70.36;100709.00;10438355;28;20053;-67
2023/04/08 06:42:10;;;;;;;9.60;8.70;;;;;;;8.14;70.13;100708.50;10440432;28;20060;-69
2023/04/08 06:47:11;;;;;;;8.65;7.85;;;;;;;8.18;69.99;100721.56;10435143;28;20121;-65
2023/04/08 06:52:13;;;;;;;9.00;8.10;;;;;;;8.25;70.18;100726.38;10435458;28;20055;-70
2023/04/08 06:57:15;;;;;;;9.10;8.20;;;;;;;8.30;69.70;100723.44;10438640;28;20056;-68
2023/04/08 07:02:16;;;;;;;10.38;9.30;;;;;;;8.46;69.93;100734.81;10440468;28;20137;-67
2023/04/08 07:07:18;;;;;;;10.68;9.35;;;;;;;8.61;69.78;100740.09;10441108;28;20699;-68
2023/04/08 07:12:20;;;;;;;10.05;9.15;;;;;;;8.75;69.45;100729.44;10438427;28;20060;-69
2023/04/08 07:17:21;;;;;;;9.75;8.85;;;;;;;8.90;69.05;100737.34;10438209;28;20059;-67
2023/04/08 07:22:22;;;;;;;10.35;9.30;;;;;;;9.04;68.12;100739.94;10436950;28;20120;-66
2023/04/08 07:27:24;;;;;;;9.73;8.73;;;;;;;9.24;68.34;100745.72;10438669;28;20040;-66
2023/04/08 07:32:26;;;;;;;10.52;8.30;;;;;;;9.38;67.74;100742.97;10441722;28;20041;-65
2023/04/08 07:37:27;;;;;;;8.77;7.97;;;;;;;9.59;66.96;100755.78;10451501;28;20049;-69
2023/04/08 07:42:29;;;;;;;9.43;8.52;;;;;;;9.70;65.69;100758.56;10448694;28;20096;-66
2023/04/08 07:47:30;;;;;;;10.38;9.20;;;;;;;9.73;65.31;100763.66;10435780;28;20063;-69
2023/04/08 07:52:32;;;;;;;9.93;8.85;;;;;;;9.65;66.30;100755.34;10440741;28;20060;-66
2023/04/08 07:57:34;;;;;;;10.00;9.00;;;;;;;9.72;65.32;100773.41;10438106;28;20079;-64
2023/04/08 08:02:35;;;;;;;8.52;7.72;;;;;;;9.67;64.62;100782.69;10429150;28;20530;-68
2023/04/08 08:07:37;;;;;;;8.50;7.80;;;;;;;9.62;64.48;100787.44;10427921;28;20055;-68
2023/04/08 08:12:39;;;;;;;9.68;8.68;;;;;;;9.59;65.00;100791.16;10436790;28;20068;-66
2023/04/08 08:17:40;;;;;;;9.20;8.02;;;;;;;9.64;65.06;100797.03;10436230;28;20254;-64
2023/04/08 08:22:43;;;;;;;8.43;7.63;;;;;;;9.62;64.52;100803.41;10445373;28;20056;-67
2023/04/08 08:27:57;;;;;;;8.88;8.07;;;;;;;9.59;63.33;100808.94;10433889;28;20041;-66
2023/04/08 08:32:59;;;;;;;9.00;8.10;;;;;;;9.58;61.89;100817.84;10437124;28;20401;-68
2023/04/08 08:38:01;;;;;;;9.02;8.13;;;;;;;9.57;61.72;100817.00;10441454;28;20118;-67
2023/04/08 08:43:02;;;;;;;9.85;8.95;;;;;;;9.59;62.28;100824.88;10434269;28;20079;-67
2023/04/08 08:48:05;;;;;;;9.52;8.63;;;;;;;9.44;62.78;100816.97;10433843;28;20076;-69
2023/04/08 08:53:06;;;;;;;9.43;8.27;;;;;;;9.55;63.08;100830.41;10433233;28;20061;-66
2023/04/08 08:58:08;;;;;;;9.27;8.38;;;;;;;9.63;64.01;100829.03;10433159;28;20068;-67
2023/04/08 09:03:22;;;;;;;9.68;8.77;;;;;;;9.69;63.36;100831.28;10468574;28;20064;-70
2023/04/08 09:08:35;;;;;;;9.43;8.52;;;;;;;9.83;61.93;100839.19;10442412;28;20049;-69
2023/04/08 09:13:37;;;;;;;10.05;9.15;;;;;;;9.93;62.21;100836.72;10436585;28;20056;-65
2023/04/08 09:18:42;;;;;;;8.82;8.00;;;;;;;10.00;60.56;100837.19;10436261;28;20454;-68
2023/04/08 09:23:44;;;;;;;9.20;8.05;;;;;;;10.04;60.79;100843.97;10430719;28;20074;-67
2023/04/08 09:29:08;;;;;;;8.30;7.35;;;;;;;10.16;60.61;100840.44;10431355;28;20348;-65
2023/04/08 09:34:27;;;;;;;10.48;9.48;;;;;;;10.33;60.22;100839.31;10437419;28;20650;-65
2023/04/08 09:39:30;;;;;;;8.05;7.25;;;;;;;10.36;59.41;100840.94;10431945;28;20489;-65
2023/04/08 09:44:32;;;;;;;6.68;6.07;;;;;;;10.43;57.35;100848.38;10444758;28;20056;-66
2023/04/08 09:49:48;;;;;;;7.10;5.70;;;;;;;10.23;56.46;100806.31;10440125;28;20285;-66
2023/04/08 09:54:55;;;;;;;6.47;5.80;;;;;;;10.44;56.19;100855.38;10429852;28;20044;-69
2023/04/08 10:00:07;;;;;;;24.17;21.58;;;;;;;10.60;57.33;100844.50;10434945;28;20048;-67
2023/04/08 10:05:11;;;;;;;7.30;6.57;;;;;;;10.92;56.71;100838.66;10430441;28;20128;-67
2023/04/08 10:10:14;;;;;;;7.50;6.07;;;;;;;10.92;55.28;100838.66;10428841;28;20068;-66
2023/04/08 10:15:23;;;;;;;7.10;6.15;;;;;;;11.29;55.87;100846.63;10426918;28;20056;-66
2023/04/08 10:20:37;;;;;;;7.75;6.50;;;;;;;11.71;53.21;100840.00;10435908;28;20036;-68
2023/04/08 10:25:40;;;;;;;8.65;6.07;;;;;;;12.27;52.35;100848.16;10440029;28;20050;-66
2023/04/08 10:30:46;;;;;;;6.65;6.03;;;;;;;13.64;48.65;100836.25;10453889;28;20064;-68
2023/04/08 10:35:59;;;;;;;6.63;5.80;;;;;;;14.69;46.56;100826.41;10436726;28;20041;-67
2023/04/08 10:41:01;;;;;;;6.38;5.10;;;;;;;16.39;43.50;100830.47;10425314;28;20048;-67
2023/04/08 10:46:03;;;;;;;6.53;5.88;;;;;;;17.70;40.41;100825.69;10427061;28;21097;-67
2023/04/08 10:51:05;;;;;;;6.50;5.90;;;;;;;19.22;38.87;100816.19;10436881;28;20533;-69
2023/04/08 10:56:17;;;;;;;7.22;6.53;;;;;;;18.20;40.10;100826.88;10431284;28;20048;-70
2023/04/08 11:01:19;;;;;;;7.53;6.18;;;;;;;16.41;43.09;100828.50;10448465;28;20068;-66
2023/04/08 11:06:20;;;;;;;7.90;5.47;;;;;;;16.08;44.97;100822.66;10438298;28;20041;-68
2023/04/08 11:11:28;;;;;;;6.35;5.72;;;;;;;15.61;46.45;100820.72;10437990;28;20462;-69
2023/04/08 11:16:29;;;;;;;6.65;5.95;;;;;;;15.56;45.79;100818.47;10436852;28;20055;-69
2023/04/08 11:21:34;;;;;;;6.88;6.18;;;;;;;16.14;44.40;100827.44;10436688;28;20519;-67
2023/04/08 11:26:37;;;;;;;6.80;6.20;;;;;;;14.73;46.53;100807.25;10440007;28;20498;-67
2023/04/08 11:31:40;;;;;;;7.00;6.40;;;;;;;14.09;48.79;100822.59;10440006;28;20132;-68
2023/04/08 11:36:41;;;;;;;6.90;6.30;;;;;;;14.04;49.77;100822.16;10438734;28;20461;-70
2023/04/08 11:41:43;;;;;;;6.07;5.55;;;;;;;14.16;48.62;100809.53;10444225;28;20049;-68
2023/04/08 11:46:54;;;;;;;6.38;5.78;;;;;;;14.23;48.35;100823.22;10434054;28;20057;-69
2023/04/08 11:51:58;;;;;;;7.38;6.70;;;;;;;14.16;49.78;100817.56;10433426;28;20114;-68
2023/04/08 11:56:59;;;;;;;7.10;6.20;;;;;;;17.67;43.39;100817.91;10438666;28;20604;-67
2023/04/08 12:02:02;;;;;;;6.18;5.57;;;;;;;17.85;41.58;100823.28;10445354;28;20149;-68
2023/04/08 12:07:03;;;;;;;7.20;6.50;;;;;;;17.54;42.83;100821.00;10432831;28;20040;-70
2023/04/08 12:12:05;;;;;;;7.10;6.50;;;;;;;18.33;41.72;100821.91;10439985;28;20056;-70
2023/04/08 12:17:06;;;;;;;6.60;6.05;;;;;;;18.52;39.84;100814.59;10433989;28;20459;-70
2023/04/08 12:22:08;;;;;;;7.05;6.45;;;;;;;18.67;39.59;100812.94;10439296;28;20052;-70
2023/04/08 12:27:09;;;;;;;7.00;6.40;;;;;;;20.21;38.09;100821.56;10438076;28;20078;-68
2023/04/08 12:32:11;;;;;;;6.20;5.70;;;;;;;25.11;29.79;100814.94;10437413;28;20059;-72
2023/04/08 12:37:12;;;;;;;8.17;6.03;;;;;;;26.68;27.91;100805.44;10451143;28;20059;-73
2023/04/08 12:42:14;;;;;;;5.70;5.20;;;;;;;24.82;29.42;100802.50;10490925;28;20052;-72
2023/04/08 12:47:16;;;;;;;6.60;5.68;;;;;;;22.82;32.20;100794.47;10452354;28;20322;-68
2023/04/08 12:52:18;;;;;;;7.25;6.40;;;;;;;20.90;35.86;100789.34;10433208;28;20059;-67
2023/04/08 12:57:19;;;;;;;6.10;5.60;;;;;;;19.92;36.80;100798.63;10434832;28;20048;-71
2023/04/08 13:02:21;;;;;;;6.43;5.90;;;;;;;18.96;38.42;100784.78;10434636;28;20610;-70
2023/04/08 13:07:22;;;;;;;6.13;5.63;;;;;;;18.41;39.21;100788.75;10436891;28;20376;-67
2023/04/08 13:12:23;;;;;;;6.18;5.60;;;;;;;18.16;40.08;100809.34;10433250;28;20044;-70
2023/04/08 13:17:25;;;;;;;7.88;6.47;;;;;;;17.41;41.78;100809.78;10428484;28;20048;-69
2023/04/08 13:22:26;;;;;;;7.00;6.38;;;;;;;16.72;43.59;100812.06;10435803;28;20060;-68
2023/04/08 13:27:28;;;;;;;6.82;6.22;;;;;;;16.28;45.26;100815.38;10433171;28;20045;-69
2023/04/08 13:32:29;;;;;;;7.55;6.88;;;;;;;15.81;46.08;100810.84;10438536;28;20053;-73
2023/04/08 13:37:31;;;;;;;8.02;7.05;;;;;;;15.51;47.35;100799.28;10444120;28;20064;-69
2023/04/08 13:42:33;;;;;;;8.52;7.57;;;;;;;15.32;47.92;100799.28;10430416;28;20930;-69
2023/04/08 13:47:34;;;;;;;7.97;7.18;;;;;;;15.18;49.17;100809.44;10429211;28;20103;-68
2023/04/08 13:52:38;;;;;;;9.05;7.65;;;;;;;14.89;49.89;100797.81;10435142;28;20438;-66
2023/04/08 13:57:39;;;;;;;7.97;7.25;;;;;;;14.72;50.44;100797.50;10431228;28;20049;-70
2023/04/08 14:02:41;;;;;;;7.85;7.15;;;;;;;14.65;50.82;100809.75;10434055;28;20079;-70
2023/04/08 14:07:42;;;;;;;7.80;6.97;;;;;;;14.46;51.42;100813.19;10433126;28;20076;-70
2023/04/08 14:12:45;;;;;;;7.65;6.55;;;;;;;14.41;51.26;100816.28;10439659;28;20625;-69
2023/04/08 14:17:47;;;;;;;8.18;7.38;;;;;;;14.23;52.22;100817.88;10429657;28;20076;-67
2023/04/08 14:22:49;;;;;;;7.68;7.05;;;;;;;14.23;52.19;100807.16;10432602;28;20107;-67
2023/04/08 14:27:51;;;;;;;9.68;8.77;;;;;;;14.15;52.35;100805.16;10431091;28;20140;-70
2023/04/08 14:32:59;;;;;;;9.55;8.75;;;;;;;14.33;52.70;100800.03;10439499;28;20043;-69
2023/04/08 14:38:01;;;;;;;9.23;8.32;;;;;;;14.31;52.85;100800.16;10438768;28;20139;-69
2023/04/08 14:43:02;;;;;;;8.93;8.13;;;;;;;14.14;53.31;100809.66;10440460;28;20743;-67
2023/04/08 14:48:04;;;;;;;9.85;8.95;;;;;;;14.14;53.72;100798.97;10439072;28;20470;-68
2023/04/08 14:53:05;;;;;;;8.95;8.15;;;;;;;14.22;54.00;100816.19;10441197;28;20048;-64
2023/04/08 14:58:07;;;;;;;9.40;8.60;;;;;;;14.13;54.74;100805.28;10441711;28;20053;-68
2023/04/08 15:03:10;;;;;;;9.80;8.90;;;;;;;14.24;54.40;100809.69;10444793;28;20053;-67
2023/04/08 15:08:12;;;;;;;9.98;9.10;;;;;;;14.29;54.62;100801.25;10460230;28;20254;-69
2023/04/08 15:13:13;;;;;;;10.55;9.57;;;;;;;14.11;55.06;100793.88;10455480;28;20190;-69
2023/04/08 15:18:15;;;;;;;10.05;9.13;;;;;;;14.03;55.26;100790.16;10458748;28;20104;-67
2023/04/08 15:23:17;;;;;;;11.10;9.77;;;;;;;14.05;55.17;100794.41;10461074;28;20052;-68
2023/04/08 15:28:18;;;;;;;10.32;9.32;;;;;;;14.04;55.12;100799.91;10434811;28;20113;-68
2023/04/08 15:33:19;;;;;;;10.15;9.25;;;;;;;13.81;56.36;100802.72;10436987;28;20121;-68
2023/04/08 15:38:21;;;;;;;9.93;9.02;;;;;;;13.91;56.70;100802.78;10436118;28;20040;-68
2023/04/08 15:43:22;;;;;;;10.48;9.38;;;;;;;13.95;56.34;100799.69;10430411;28;20056;-69
2023/04/08 15:48:24;;;;;;;9.77;8.82;;;;;;;13.82;56.82;100784.84;10437544;28;20131;-66
2023/04/08 15:53:26;;;;;;;9.77;8.88;;;;;;;13.69;57.45;100803.75;10432292;28;20052;-66
2023/04/08 15:58:28;;;;;;;11.02;10.02;;;;;;;13.61;58.27;100809.75;10432871;28;20097;-67
2023/04/08 16:03:30;;;;;;;12.38;11.27;;;;;;;13.60;57.74;100816.06;10431994;28;20097;-67
2023/04/08 16:08:33;;;;;;;10.48;9.48;;;;;;;13.51;58.15;100811.50;10447463;28;20045;-71
2023/04/08 16:13:37;;;;;;;9.48;8.57;;;;;;;13.51;58.41;100816.84;10470859;28;20096;-70
2023/04/08 16:18:40;;;;;;;10.85;9.82;;;;;;;13.52;58.38;100818.56;10456980;28;20052;-67
2023/04/08 16:23:42;;;;;;;10.80;9.68;;;;;;;13.40;58.92;100820.44;10433853;28;20418;-67
2023/04/08 16:28:43;;;;;;;11.52;10.32;;;;;;;13.36;58.35;100833.22;10432307;28;20091;-67
2023/04/08 16:33:44;;;;;;;11.00;9.90;;;;;;;13.31;58.39;100835.38;10430480;28;20052;-69
2023/04/08 16:38:46;;;;;;;13.13;11.82;;;;;;;13.15;57.70;100821.56;10440193;28;20102;-67
2023/04/08 16:43:47;;;;;;;10.70;9.60;;;;;;;13.18;57.29;100837.38;10430903;28;20053;-68
2023/04/08 16:48:49;;;;;;;9.40;8.48;;;;;;;13.17;57.39;100841.03;10435448;28;20439;-66
2023/04/08 16:53:51;;;;;;;7.57;6.75;;;;;;;13.11;55.94;100853.06;10433947;28;20246;-68
2023/04/08 16:58:52;;;;;;;6.43;5.60;;;;;;;13.07;55.24;100857.78;10435329;28;20045;-68
2023/04/08 17:03:54;;;;;;;6.68;5.32;;;;;;;12.99;53.92;100865.59;10434368;28;20278;-68
2023/04/08 17:08:56;;;;;;;6.28;5.28;;;;;;;12.93;53.13;100866.09;10434386;28;20137;-65
2023/04/08 17:13:58;;;;;;;4.57;4.15;;;;;;;12.88;53.22;100862.94;10426899;28;20045;-67
2023/04/08 17:18:59;;;;;;;4.25;3.85;;;;;;;12.93;53.20;100875.94;10426699;28;20309;-68
2023/04/08 17:24:00;;;;;;;3.60;3.30;;;;;;;12.87;51.50;100877.28;10430808;28;20454;-65
2023/04/08 17:29:02;;;;;;;3.00;2.55;;;;;;;12.78;51.56;100873.53;10428694;28;20134;-68
2023/04/08 17:34:03;;;;;;;3.60;2.85;;;;;;;12.69;51.85;100884.94;10430548;28;20076;-67
2023/04/08 17:39:05;;;;;;;3.28;2.92;;;;;;;12.60;51.23;100891.88;10431339;28;20074;-70
2023/04/08 17:44:06;;;;;;;2.95;2.70;;;;;;;12.54;51.23;100897.69;10432416;28;20078;-65
2023/04/08 17:49:11;;;;;;;2.92;2.65;;;;;;;12.44;51.95;100894.88;10432012;28;20048;-69
2023/04/08 17:54:13;;;;;;;3.05;2.70;;;;;;;12.37;51.77;100897.19;10435129;28;20053;-69
2023/04/08 17:59:14;;;;;;;2.88;2.40;;;;;;;12.35;51.88;100912.47;10429121;28;20069;-69
2023/04/08 18:04:16;;;;;;;3.30;3.00;;;;;;;12.27;51.77;100914.03;10431001;28;20055;-69
2023/04/08 18:09:17;;;;;;;3.17;2.80;;;;;;;12.14;52.02;100906.13;10441014;28;20135;-67
2023/04/08 18:14:19;;;;;;;3.75;2.90;;;;;;;12.08;52.31;100914.59;10437161;28;20063;-68
2023/04/08 18:19:21;;;;;;;3.42;3.13;;;;;;;12.08;52.89;100922.59;10431588;28;20742;-68
2023/04/08 18:24:23;;;;;;;3.50;3.20;;;;;;;11.99;53.39;100929.47;10447031;28;20045;-69
2023/04/08 18:29:24;;;;;;;3.53;3.22;;;;;;;11.87;53.39;100936.56;10437220;28;20533;-68
2023/04/08 18:34:26;;;;;;;5.07;3.58;;;;;;;11.87;53.60;100947.22;10441357;28;20052;-68
2023/04/08 18:39:27;;;;;;;3.78;3.10;;;;;;;11.81;53.86;100948.56;10438614;28;20052;-66
2023/04/08 18:44:29;;;;;;;3.85;3.53;;;;;;;11.78;53.27;100963.94;10439959;28;20052;-68
2023/04/08 18:49:32;;;;;;;4.18;3.78;;;;;;;11.78;53.91;100958.59;10441230;28;20199;-67
2023/04/08 18:54:34;;;;;;;4.07;3.60;;;;;;;11.68;54.03;100958.44;10434586;28;20096;-67
2023/04/08 18:59:36;;;;;;;3.95;3.65;;;;;;;11.64;53.38;100957.78;10442440;28;20292;-69
2023/04/08 19:04:37;;;;;;;3.90;3.50;;;;;;;11.60;52.90;100969.66;10445182;28;20053;-66
2023/04/08 19:09:38;;;;;;;5.32;3.63;;;;;;;11.57;53.11;100967.22;10445020;28;20116;-68
2023/04/08 19:14:40;;;;;;;3.55;3.25;;;;;;;11.55;53.58;100968.31;10435974;28;20077;-68
2023/04/08 19:19:42;;;;;;;4.30;3.90;;;;;;;11.53;53.61;100975.53;10452268;28;20650;-67
2023/04/08 19:24:43;;;;;;;4.38;3.97;;;;;;;11.41;53.48;100971.94;10434368;28;20056;-68
2023/04/08 19:29:45;;;;;;;4.75;4.05;;;;;;;11.36;53.53;100984.78;10448642;28;20060;-66
2023/04/08 19:34:47;;;;;;;4.78;3.88;;;;;;;11.24;53.91;100976.69;10438061;28;21455;-67
2023/04/08 19:39:48;;;;;;;4.30;3.75;;;;;;;11.17;54.65;100979.91;10441941;28;20151;-67
2023/04/08 19:44:50;;;;;;;4.32;3.92;;;;;;;11.09;54.69;100978.66;10442099;28;20533;-66
2023/04/08 19:49:51;;;;;;;5.53;4.93;;;;;;;11.03;54.72;100984.41;10450477;28;20059;-71
2023/04/08 19:54:53;;;;;;;4.18;3.88;;;;;;;11.06;54.68;100986.00;10486041;28;20052;-70
2023/04/08 19:59:54;;;;;;;5.03;4.40;;;;;;;11.07;54.89;100999.22;10472762;28;20098;-67
2023/04/08 20:04:56;;;;;;;5.45;4.53;;;;;;;11.04;55.01;101003.91;10436454;28;20583;-62
2023/04/08 20:09:58;;;;;;;5.45;4.95;;;;;;;11.03;55.72;100999.53;10432063;28;20415;-65
2023/04/08 20:15:01;;;;;;;5.57;5.07;;;;;;;10.98;56.16;101004.34;10434616;28;20067;-68
2023/04/08 20:20:04;;;;;;;7.60;6.43;;;;;;;10.92;56.54;101003.81;10435715;28;20052;-69
2023/04/08 20:25:06;;;;;;;6.82;5.80;;;;;;;10.94;56.66;101009.03;10439941;28;20052;-67
2023/04/08 20:30:08;;;;;;;6.32;5.72;;;;;;;10.93;56.63;101007.34;10451905;28;20044;-63
2023/04/08 20:35:10;;;;;;;5.13;4.63;;;;;;;10.90;57.00;101008.41;10442812;28;20044;-67
2023/04/08 20:40:12;;;;;;;6.55;5.95;;;;;;;10.86;57.27;101009.56;10442360;28;20133;-65
2023/04/08 20:45:14;;;;;;;6.63;5.93;;;;;;;10.81;57.34;101006.38;10431738;28;20106;-70
2023/04/08 20:50:16;;;;;;;7.38;5.82;;;;;;;10.77;57.44;101000.41;10436776;28;20063;-67
2023/04/08 20:55:17;;;;;;;7.03;6.32;;;;;;;10.74;57.66;101000.63;10429672;28;20139;-67
2023/04/08 21:00:18;;;;;;;7.68;6.78;;;;;;;10.71;57.94;101010.63;10430069;28;20140;-66
2023/04/08 21:05:21;;;;;;;7.72;6.30;;;;;;;10.58;57.98;101002.63;10442427;28;20215;-66
2023/04/08 21:10:23;;;;;;;7.45;6.28;;;;;;;10.64;58.21;101022.66;10433858;28;20476;-68
2023/04/08 21:15:24;;;;;;;6.70;5.78;;;;;;;10.57;58.34;101012.44;10436460;28;20173;-65
2023/04/08 21:20:26;;;;;;;8.57;6.70;;;;;;;10.44;58.69;101003.59;10431165;28;20045;-65
2023/04/08 21:25:27;;;;;;;7.80;6.55;;;;;;;10.38;58.83;101012.84;10434726;28;20054;-67
2023/04/08 21:30:29;;;;;;;7.55;6.75;;;;;;;10.33;58.93;101019.38;10441337;28;20056;-70
2023/04/08 21:35:30;;;;;;;7.15;6.45;;;;;;;10.22;59.03;101010.34;10433981;28;20049;-65
2023/04/08 21:40:31;;;;;;;7.60;6.80;;;;;;;10.24;58.78;101024.38;10432606;28;20053;-67
2023/04/08 21:45:33;;;;;;;7.90;7.10;;;;;;;10.20;58.93;101024.69;10428819;28;20075;-64
2023/04/08 21:50:36;;;;;;;8.27;6.57;;;;;;;10.17;59.22;101017.75;10428477;28;20044;-67
2023/04/08 21:55:37;;;;;;;7.35;6.65;;;;;;;10.13;59.02;101021.56;10433827;28;20076;-65
2023/04/08 22:00:39;;;;;;;7.85;6.80;;;;;;;10.11;58.94;101010.19;10434536;28;20155;-64
2023/04/08 22:05:40;;;;;;;7.50;6.70;;;;;;;10.14;58.89;101022.44;10433003;28;20052;-66
2023/04/08 22:10:42;;;;;;;8.75;7.05;;;;;;;10.12;58.73;101019.88;10433232;28;20052;-67
2023/04/08 22:15:43;;;;;;;6.82;6.05;;;;;;;10.11;58.95;101015.50;10427812;28;21642;-68
2023/04/08 22:20:45;;;;;;;7.10;6.38;;;;;;;10.10;59.17;101016.44;10433111;28;20446;-67
2023/04/08 22:25:49;;;;;;;7.40;6.35;;;;;;;10.07;59.23;101011.34;10432885;28;20147;-68
2023/04/08 22:30:53;;;;;;;7.47;6.77;;;;;;;10.08;58.76;101013.06;10437362;28;20057;-66
2023/04/08 22:35:56;;;;;;;7.28;6.55;;;;;;;10.04;59.02;101008.88;10442025;28;20044;-66
2023/04/08 22:40:57;;;;;;;8.38;7.20;;;;;;;10.01;58.99;101014.41;10440118;28;20599;-67
2023/04/08 22:45:59;;;;;;;7.88;6.65;;;;;;;10.02;58.88;101008.97;10436336;28;20060;-66
2023/04/08 22:51:01;;;;;;;8.63;6.88;;;;;;;9.98;58.99;101004.81;10439191;28;20048;-68
2023/04/08 22:56:02;;;;;;;8.45;7.20;;;;;;;9.90;58.80;100999.16;10443322;28;20048;-63
2023/04/08 23:01:15;;;;;;;7.63;6.57;;;;;;;9.91;58.85;100996.41;10437609;28;20049;-68
2023/04/08 23:06:17;;;;;;;8.13;7.03;;;;;;;9.94;58.82;101010.44;10435966;28;20055;-67
2023/04/08 23:11:19;;;;;;;8.65;6.75;;;;;;;9.85;59.13;101004.78;10435271;28;20499;-67
2023/04/08 23:16:20;;;;;;;8.00;7.20;;;;;;;9.84;59.13;101013.72;10440088;28;20497;-68